createdAt,value
2022-09-13T00:01:17.212Z,17.36
2022-09-13T00:03:44.827Z,17.35
2022-09-13T00:06:19.267Z,17.36
2022-09-13T00:08:49.659Z,17.35
2022-09-13T00:11:24.208Z,17.27
2022-09-13T00:13:53.392Z,17.15
2022-09-13T00:16:24.657Z,17.11
2022-09-13T00:18:54.520Z,17.05
2022-09-13T00:21:24.802Z,17.09
2022-09-13T00:23:54.273Z,17.04
2022-09-13T00:26:27.399Z,17.04
2022-09-13T00:28:57.612Z,17.08
2022-09-13T00:31:27.697Z,17.13
2022-09-13T00:33:56.069Z,17.11
2022-09-13T00:36:23.336Z,17.17
2022-09-13T00:38:51.956Z,17.17
2022-09-13T00:41:22.138Z,17.14
2022-09-13T00:43:57.979Z,17.12
2022-09-13T00:46:28.205Z,17.07
2022-09-13T00:49:11.816Z,16.89
2022-09-13T00:51:42.447Z,16.92
2022-09-13T00:54:10.568Z,16.86
2022-09-13T00:56:41.692Z,16.82
2022-09-13T00:59:26.836Z,16.83
2022-09-13T01:01:56.862Z,16.80
2022-09-13T01:04:32.776Z,16.77
2022-09-13T01:07:04.604Z,16.71
2022-09-13T01:09:36.835Z,16.65
2022-09-13T01:12:18.764Z,16.65
2022-09-13T01:14:47.849Z,16.62
2022-09-13T01:17:15.023Z,16.57
2022-09-13T01:19:42.248Z,16.57
2022-09-13T01:22:37.227Z,16.56
2022-09-13T01:25:34.364Z,15.97
2022-09-13T01:28:11.406Z,16.43
2022-09-13T01:30:47.693Z,16.39
2022-09-13T01:33:50.078Z,16.33
2022-09-13T01:36:58.551Z,16.31
2022-09-13T01:39:41.454Z,16.28
2022-09-13T01:42:43.171Z,16.18
2022-09-13T01:45:23.268Z,16.32
2022-09-13T01:47:54.235Z,16.28
2022-09-13T01:50:44.664Z,15.96
2022-09-13T01:53:31.405Z,16.09
2022-09-13T01:56:09.895Z,16.21
2022-09-13T01:58:44.055Z,16.18
2022-09-13T02:01:32.359Z,16.07
2022-09-13T02:04:03.006Z,15.97
2022-09-13T02:06:38.091Z,16.05
2022-09-13T02:09:12.363Z,16.15
2022-09-13T02:11:43.211Z,16.27
2022-09-13T02:14:22.168Z,16.26
2022-09-13T02:17:06.222Z,16.22
2022-09-13T02:20:07.079Z,16.13
2022-09-13T02:22:39.892Z,16.23
2022-09-13T02:25:12.671Z,16.26
2022-09-13T02:27:45.329Z,16.23
2022-09-13T02:30:14.503Z,16.14
2022-09-13T02:32:52.994Z,16.04
2022-09-13T02:35:36.790Z,15.98
2022-09-13T02:38:16.957Z,15.93
2022-09-13T02:40:53.794Z,15.92
2022-09-13T02:43:32.123Z,15.92
2022-09-13T02:46:12.937Z,15.79
2022-09-13T02:49:02.616Z,15.95
2022-09-13T02:51:42.293Z,15.89
2022-09-13T02:54:37.362Z,15.89
2022-09-13T02:57:18.457Z,15.83
2022-09-13T02:59:48.185Z,15.84
2022-09-13T03:02:19.867Z,15.75
2022-09-13T03:04:47.699Z,15.87
2022-09-13T03:07:19.025Z,15.88
2022-09-13T03:09:56.373Z,15.85
2022-09-13T03:12:48.533Z,15.88
2022-09-13T03:15:30.838Z,15.91
2022-09-13T03:18:22.317Z,15.99
2022-09-13T03:21:07.704Z,16.00
2022-09-13T03:24:02.103Z,16.06
2022-09-13T03:26:46.189Z,16.14
2022-09-13T03:29:32.041Z,16.05
2022-09-13T03:32:22.775Z,16.13
2022-09-13T03:35:06.097Z,16.11
2022-09-13T03:37:48.566Z,16.04
2022-09-13T03:40:44.856Z,15.94
2022-09-13T03:43:16.598Z,15.96
2022-09-13T03:45:49.752Z,16.08
2022-09-13T03:48:18.552Z,16.26
2022-09-13T03:50:47.651Z,16.19
2022-09-13T03:53:21.006Z,15.98
2022-09-13T03:55:48.065Z,15.72
2022-09-13T03:58:22.011Z,15.58
2022-09-13T04:00:52.363Z,15.56
2022-09-13T04:03:19.877Z,15.46
2022-09-13T04:05:47.116Z,15.47
2022-09-13T04:08:14.301Z,15.48
2022-09-13T04:10:41.987Z,15.48
2022-09-13T04:13:09.291Z,15.51
2022-09-13T04:15:36.442Z,15.56
2022-09-13T04:18:03.688Z,15.67
2022-09-13T04:20:32.714Z,15.67
2022-09-13T04:23:01.169Z,15.70
2022-09-13T04:25:30.211Z,15.71
2022-09-13T04:28:00.040Z,15.70
2022-09-13T04:30:28.597Z,15.78
2022-09-13T04:33:07.881Z,15.80
2022-09-13T04:35:39.410Z,15.86
2022-09-13T04:38:07.568Z,15.87
2022-09-13T04:40:35.894Z,15.93
2022-09-13T04:43:04.047Z,15.97
2022-09-13T04:45:31.511Z,16.00
2022-09-13T04:47:59.382Z,16.10
2022-09-13T04:50:26.641Z,16.14
2022-09-13T04:52:57.174Z,16.23
2022-09-13T04:55:26.331Z,16.26
2022-09-13T04:57:54.898Z,16.42
2022-09-13T05:00:23.081Z,16.47
2022-09-13T05:02:55.635Z,16.50
2022-09-13T05:05:23.747Z,16.56
2022-09-13T05:07:51.959Z,16.60
2022-09-13T05:10:24.323Z,16.60
2022-09-13T05:12:53.884Z,16.63
2022-09-13T05:15:21.321Z,16.68
2022-09-13T05:17:48.408Z,16.71
2022-09-13T05:20:16.259Z,16.77
2022-09-13T05:22:43.541Z,16.83
2022-09-13T05:25:10.743Z,16.91
2022-09-13T05:27:38.115Z,16.92
2022-09-13T05:30:06.104Z,16.97
2022-09-13T05:32:33.230Z,17.07
2022-09-13T05:35:00.453Z,17.12
2022-09-13T05:37:27.705Z,17.16
2022-09-13T05:40:10.625Z,17.22
2022-09-13T05:42:39.676Z,17.30
2022-09-13T05:45:07.519Z,17.36
2022-09-13T05:47:34.941Z,17.34
2022-09-13T05:50:10.427Z,17.39
2022-09-13T05:52:39.731Z,17.46
2022-09-13T05:55:07.421Z,17.54
2022-09-13T05:57:34.600Z,17.61
2022-09-13T06:00:02.081Z,17.66
2022-09-13T06:02:40.629Z,17.59
2022-09-13T06:05:10.749Z,17.70
2022-09-13T06:07:41.956Z,17.74
2022-09-13T06:10:10.495Z,17.81
2022-09-13T06:12:38.354Z,17.82
2022-09-13T06:15:06.117Z,17.94
2022-09-13T06:17:33.292Z,18.04
2022-09-13T06:20:00.508Z,18.07
2022-09-13T06:22:33.448Z,18.19
2022-09-13T06:25:00.711Z,18.28
2022-09-13T06:27:30.422Z,18.23
2022-09-13T06:29:57.548Z,18.27
2022-09-13T06:32:25.579Z,18.43
2022-09-13T06:34:53.085Z,18.50
2022-09-13T06:37:20.312Z,18.55
2022-09-13T06:39:47.532Z,18.62
2022-09-13T06:42:15.459Z,18.75
2022-09-13T06:44:46.163Z,18.75
2022-09-13T06:47:13.702Z,18.72
2022-09-13T06:49:40.881Z,18.92
2022-09-13T06:52:08.285Z,19.09
2022-09-13T06:54:35.506Z,19.09
2022-09-13T06:57:03.639Z,19.14
2022-09-13T06:59:31.378Z,19.26
2022-09-13T07:01:58.749Z,19.36
2022-09-13T07:04:26.231Z,19.40
2022-09-13T07:06:54.777Z,19.32
2022-09-13T07:09:22.460Z,19.25
2022-09-13T07:11:52.008Z,19.24
2022-09-13T07:14:22.443Z,19.28
2022-09-13T07:16:51.204Z,19.42
2022-09-13T07:19:22.899Z,19.37
2022-09-13T07:21:50.665Z,19.42
2022-09-13T07:24:18.689Z,19.56
2022-09-13T07:26:46.978Z,19.72
2022-09-13T07:29:22.837Z,19.80
2022-09-13T07:31:52.210Z,19.88
2022-09-13T07:34:22.090Z,19.95
2022-09-13T07:36:50.365Z,20.04
2022-09-13T07:39:22.302Z,20.22
2022-09-13T07:41:50.868Z,20.30
2022-09-13T07:44:18.687Z,20.39
2022-09-13T07:46:46.650Z,20.19
2022-09-13T07:49:17.895Z,20.13
2022-09-13T07:51:45.727Z,19.80
2022-09-13T07:54:18.147Z,20.10
2022-09-13T07:56:45.757Z,20.17
2022-09-13T07:59:15.556Z,20.10
2022-09-13T08:01:45.771Z,20.03
2022-09-13T08:04:17.908Z,20.14
2022-09-13T08:06:46.910Z,20.26
2022-09-13T08:09:15.423Z,20.41
2022-09-13T08:11:46.021Z,20.47
2022-09-13T08:14:15.743Z,20.61
2022-09-13T08:16:43.298Z,20.54
2022-09-13T08:19:13.719Z,20.47
2022-09-13T08:21:42.903Z,20.47
2022-09-13T08:24:15.998Z,20.55
2022-09-13T08:26:43.863Z,20.67
2022-09-13T08:29:12.372Z,20.66
2022-09-13T08:31:39.550Z,20.61
2022-09-13T08:34:11.995Z,20.60
2022-09-13T08:36:41.231Z,20.63
2022-09-13T08:39:09.723Z,20.80
2022-09-13T08:41:40.212Z,20.87
2022-09-13T08:44:29.691Z,20.86
2022-09-13T08:47:09.883Z,20.95
2022-09-13T08:49:47.945Z,21.01
2022-09-13T08:52:15.194Z,21.04
2022-09-13T08:54:43.234Z,21.11
2022-09-13T08:57:19.214Z,21.15
2022-09-13T08:59:48.797Z,21.26
2022-09-13T09:02:47.034Z,21.12
2022-09-13T09:05:30.809Z,21.30
2022-09-13T09:08:12.928Z,21.48
2022-09-13T09:10:47.118Z,21.40
2022-09-13T09:13:26.089Z,21.55
2022-09-13T09:15:58.292Z,21.58
2022-09-13T09:18:33.582Z,21.65
2022-09-13T09:21:04.221Z,21.72
2022-09-13T09:23:41.976Z,21.74
2022-09-13T09:26:18.808Z,21.86
2022-09-13T09:28:59.333Z,21.85
2022-09-13T09:31:59.244Z,21.96
2022-09-13T09:34:48.426Z,22.17
2022-09-13T09:37:27.284Z,22.21
2022-09-13T09:40:01.647Z,22.52
2022-09-13T09:42:40.175Z,22.66
2022-09-13T09:45:29.711Z,22.27
2022-09-13T09:48:02.445Z,22.26
2022-09-13T09:50:35.115Z,22.22
2022-09-13T09:53:15.034Z,22.21
2022-09-13T09:55:48.717Z,22.06
2022-09-13T09:58:19.195Z,21.94
2022-09-13T10:00:57.682Z,21.89
2022-09-13T10:03:27.780Z,21.59
2022-09-13T10:06:11.690Z,22.05
2022-09-13T10:08:41.955Z,22.20
2022-09-13T10:11:10.019Z,21.92
2022-09-13T10:13:38.415Z,21.69
2022-09-13T10:16:21.797Z,21.60
2022-09-13T10:18:48.998Z,21.84
2022-09-13T10:21:19.273Z,21.95
2022-09-13T10:23:50.898Z,22.03
2022-09-13T10:26:20.591Z,22.04
2022-09-13T10:28:58.759Z,21.70
2022-09-13T10:31:39.247Z,22.17
2022-09-13T10:34:28.382Z,22.22
2022-09-13T10:37:13.868Z,22.31
2022-09-13T10:39:50.394Z,22.45
2022-09-13T10:42:23.710Z,22.47
2022-09-13T10:44:58.108Z,22.65
2022-09-13T10:47:27.691Z,22.62
2022-09-13T10:49:57.773Z,22.75
2022-09-13T10:52:40.870Z,22.68
2022-09-13T10:55:19.970Z,22.39
2022-09-13T10:57:49.646Z,22.50
2022-09-13T11:00:20.323Z,22.43
2022-09-13T11:03:00.478Z,22.56
2022-09-13T11:06:20.919Z,22.73
2022-09-13T11:09:09.287Z,22.69
2022-09-13T11:11:46.883Z,22.80
2022-09-13T11:14:34.253Z,22.55
2022-09-13T11:17:20.119Z,22.39
2022-09-13T11:20:02.469Z,22.46
2022-09-13T11:22:41.831Z,22.37
2022-09-13T11:25:46.615Z,22.17
2022-09-13T11:28:29.113Z,22.25
2022-09-13T11:30:56.245Z,22.57
2022-09-13T11:33:44.717Z,22.71
2022-09-13T11:36:59.130Z,22.76
2022-09-13T11:39:53.598Z,22.93
2022-09-13T11:42:31.220Z,22.79
2022-09-13T11:45:37.920Z,23.03
2022-09-13T11:48:23.126Z,23.15
2022-09-13T11:50:56.993Z,23.14
2022-09-13T11:53:36.504Z,23.11
2022-09-13T11:56:11.684Z,23.08
2022-09-13T11:58:58.220Z,23.25
2022-09-13T12:01:34.399Z,23.37
2022-09-13T12:04:14.013Z,23.55
2022-09-13T12:06:50.631Z,23.56
2022-09-13T12:09:21.072Z,23.66
2022-09-13T12:11:58.329Z,23.52
2022-09-13T12:14:38.705Z,23.43
2022-09-13T12:17:22.664Z,23.44
2022-09-13T12:19:55.181Z,23.32
2022-09-13T12:22:30.860Z,23.32
2022-09-13T12:25:03.893Z,23.09
2022-09-13T12:27:56.945Z,23.26
2022-09-13T12:30:29.861Z,23.50
2022-09-13T12:32:59.220Z,23.66
2022-09-13T12:35:35.578Z,23.83
2022-09-13T12:38:32.629Z,23.91
2022-09-13T12:41:21.475Z,23.93
2022-09-13T12:44:15.475Z,23.97
2022-09-13T12:47:11.838Z,23.85
2022-09-13T12:49:52.783Z,23.77
2022-09-13T12:52:44.939Z,24.01
2022-09-13T12:55:47.012Z,23.91
2022-09-13T12:58:37.608Z,23.79
2022-09-13T13:01:08.019Z,23.81
2022-09-13T13:03:45.290Z,23.79
2022-09-13T13:06:27.561Z,23.92
2022-09-13T13:08:57.681Z,23.89
2022-09-13T13:11:28.331Z,23.72
2022-09-13T13:14:09.345Z,23.58
2022-09-13T13:16:48.349Z,23.50
2022-09-13T13:19:33.334Z,23.52
2022-09-13T13:22:38.319Z,23.55
2022-09-13T13:25:39.185Z,23.75
2022-09-13T13:28:43.447Z,23.77
2022-09-13T13:31:10.850Z,23.88
2022-09-13T13:33:51.001Z,23.72
2022-09-13T13:36:28.955Z,23.84
2022-09-13T13:38:57.124Z,23.63
2022-09-13T13:41:33.679Z,23.79
2022-09-13T13:44:02.462Z,23.72
2022-09-13T13:46:38.650Z,23.67
2022-09-13T13:49:30.975Z,23.29
2022-09-13T13:52:18.979Z,23.09
2022-09-13T13:54:47.530Z,23.18
2022-09-13T13:57:26.068Z,23.38
2022-09-13T14:00:12.184Z,23.46
2022-09-13T14:03:10.324Z,23.56
2022-09-13T14:05:49.603Z,23.71
2022-09-13T14:09:06.419Z,23.57
2022-09-13T14:11:51.835Z,23.53
2022-09-13T14:14:27.965Z,23.38
2022-09-13T14:17:17.155Z,23.36
2022-09-13T14:19:59.123Z,23.30
2022-09-13T14:22:28.597Z,23.37
2022-09-13T14:25:18.916Z,23.44
2022-09-13T14:27:51.662Z,23.58
2022-09-13T14:30:36.574Z,23.45
2022-09-13T14:33:06.137Z,23.49
2022-09-13T14:35:33.372Z,23.59
2022-09-13T14:38:23.404Z,23.54
2022-09-13T14:40:58.235Z,23.64
2022-09-13T14:43:27.945Z,23.54
2022-09-13T14:46:07.823Z,23.61
2022-09-13T14:48:46.581Z,23.57
2022-09-13T14:51:42.256Z,23.58
2022-09-13T14:54:28.934Z,23.53
2022-09-13T14:57:00.535Z,23.45
2022-09-13T14:59:35.490Z,23.57
2022-09-13T15:02:25.219Z,23.57
2022-09-13T15:05:00.805Z,23.59
2022-09-13T15:07:36.194Z,23.65
2022-09-13T15:10:32.279Z,23.40
2022-09-13T15:13:05.352Z,23.54
2022-09-13T15:15:35.431Z,23.53
2022-09-13T15:18:19.561Z,23.46
2022-09-13T15:21:09.412Z,23.34
2022-09-13T15:23:40.346Z,23.37
2022-09-13T15:26:20.933Z,23.45
2022-09-13T15:29:04.614Z,23.49
2022-09-13T15:31:34.958Z,23.51
2022-09-13T15:34:40.792Z,23.45
2022-09-13T15:37:12.298Z,23.31
2022-09-13T15:40:02.219Z,23.38
2022-09-13T15:42:30.617Z,23.31
2022-09-13T15:44:58.325Z,23.24
2022-09-13T15:47:25.569Z,23.22
2022-09-13T15:49:53.223Z,23.12
2022-09-13T15:52:23.657Z,23.12
2022-09-13T15:54:52.240Z,23.08
2022-09-13T15:57:27.988Z,23.01
2022-09-13T16:00:01.449Z,22.89
2022-09-13T16:02:36.852Z,22.80
2022-09-13T16:05:04.629Z,22.79
2022-09-13T16:07:31.951Z,22.73
2022-09-13T16:09:59.752Z,22.67
2022-09-13T16:12:27.262Z,22.55
2022-09-13T16:14:55.000Z,22.40
2022-09-13T16:17:27.126Z,22.20
2022-09-13T16:19:55.516Z,22.20
2022-09-13T16:22:23.291Z,22.07
2022-09-13T16:24:50.791Z,21.88
2022-09-13T16:27:19.798Z,21.79
2022-09-13T16:29:48.077Z,21.64
2022-09-13T16:32:15.839Z,21.59
2022-09-13T16:34:43.044Z,21.45
2022-09-13T16:37:15.339Z,20.88
2022-09-13T16:39:43.345Z,21.28
2022-09-13T16:42:11.107Z,21.18
2022-09-13T16:44:38.228Z,21.11
2022-09-13T16:47:05.672Z,21.05
2022-09-13T16:49:33.344Z,20.99
2022-09-13T16:52:01.451Z,20.90
2022-09-13T16:54:37.521Z,20.69
2022-09-13T16:57:06.614Z,20.67
2022-09-13T16:59:34.698Z,20.58
2022-09-13T17:02:03.949Z,20.47
2022-09-13T17:04:33.257Z,20.43
2022-09-13T17:07:02.645Z,20.35
2022-09-13T17:09:30.946Z,20.26
2022-09-13T17:11:58.388Z,20.15
2022-09-13T17:14:28.030Z,20.04
2022-09-13T17:16:57.250Z,20.00
2022-09-13T17:19:31.415Z,19.84
2022-09-13T17:21:58.894Z,19.73
2022-09-13T17:24:28.206Z,19.65
2022-09-13T17:26:57.252Z,19.58
2022-09-13T17:29:31.310Z,19.57
2022-09-13T17:32:08.149Z,19.48
2022-09-13T17:34:35.729Z,19.45
2022-09-13T17:37:03.894Z,19.39
2022-09-13T17:39:31.502Z,19.32
2022-09-13T17:41:59.090Z,19.30
2022-09-13T17:44:26.405Z,19.18
2022-09-13T17:46:54.449Z,19.14
2022-09-13T17:49:21.843Z,19.08
2022-09-13T17:51:49.234Z,18.99
2022-09-13T17:54:16.732Z,18.92
2022-09-13T17:56:45.064Z,18.84
2022-09-13T17:59:20.208Z,18.74
2022-09-13T18:01:51.225Z,18.75
2022-09-13T18:04:21.698Z,18.67
2022-09-13T18:06:51.985Z,18.59
2022-09-13T18:09:19.942Z,18.50
2022-09-13T18:11:47.198Z,18.47
2022-09-13T18:14:16.493Z,18.44
2022-09-13T18:16:44.904Z,18.33
2022-09-13T18:19:12.879Z,18.24
2022-09-13T18:21:41.113Z,18.22
2022-09-13T18:24:08.615Z,18.25
2022-09-13T18:26:36.963Z,18.24
2022-09-13T18:29:09.140Z,18.12
2022-09-13T18:31:37.174Z,17.98
2022-09-13T18:34:11.262Z,18.05
2022-09-13T18:36:38.703Z,17.92
2022-09-13T18:39:07.968Z,17.97
2022-09-13T18:41:38.037Z,18.04
2022-09-13T18:44:05.661Z,17.98
2022-09-13T18:46:34.873Z,17.98
2022-09-13T18:49:03.456Z,17.91
2022-09-13T18:51:36.132Z,17.82
2022-09-13T18:54:04.911Z,17.66
2022-09-13T18:56:32.922Z,17.71
2022-09-13T18:59:02.338Z,17.66
2022-09-13T19:01:35.493Z,17.56
2022-09-13T19:04:14.554Z,17.58
2022-09-13T19:06:48.390Z,17.51
2022-09-13T19:09:16.844Z,17.49
2022-09-13T19:11:48.659Z,17.44
2022-09-13T19:14:29.544Z,17.37
2022-09-13T19:17:04.747Z,17.38
2022-09-13T19:19:32.019Z,17.41
2022-09-13T19:21:59.394Z,17.34
2022-09-13T19:24:28.559Z,17.32
2022-09-13T19:26:56.010Z,17.29
2022-09-13T19:29:23.468Z,17.26
2022-09-13T19:31:52.896Z,17.26
2022-09-13T19:34:22.411Z,17.22
2022-09-13T19:36:53.866Z,17.19
2022-09-13T19:39:21.752Z,17.05
2022-09-13T19:41:51.076Z,17.02
2022-09-13T19:44:18.279Z,17.03
2022-09-13T19:46:46.369Z,17.13
2022-09-13T19:49:16.180Z,17.09
2022-09-13T19:51:47.540Z,17.22
2022-09-13T19:54:20.975Z,17.20
2022-09-13T19:56:48.670Z,17.15
2022-09-13T19:59:19.861Z,17.08
2022-09-13T20:01:47.952Z,16.98
2022-09-13T20:04:21.065Z,16.95
2022-09-13T20:06:50.799Z,16.91
2022-09-13T20:09:19.612Z,17.00
2022-09-13T20:11:48.761Z,16.96
2022-09-13T20:14:18.710Z,17.04
2022-09-13T20:16:46.719Z,16.95
2022-09-13T20:22:08.679Z,16.90
2022-09-13T20:24:36.070Z,16.93
2022-09-13T20:27:04.856Z,16.90
2022-09-13T20:29:32.903Z,17.04
2022-09-13T20:32:00.325Z,17.37
2022-09-13T20:34:28.150Z,17.38
2022-09-13T20:36:55.326Z,17.18
2022-09-13T20:39:22.483Z,17.04
2022-09-13T20:41:50.210Z,16.88
2022-09-13T20:44:17.598Z,16.83
2022-09-13T20:46:44.874Z,16.72
2022-09-13T20:49:12.106Z,16.63
2022-09-13T20:51:39.582Z,16.54
2022-09-13T20:54:06.885Z,16.43
2022-09-13T20:56:35.653Z,16.36
2022-09-13T20:59:03.744Z,16.28
2022-09-13T21:01:32.426Z,16.21
2022-09-13T21:04:00.671Z,16.21
2022-09-13T21:06:32.089Z,16.08
2022-09-13T21:09:02.859Z,16.12
2022-09-13T21:11:34.826Z,16.04
2022-09-13T21:14:08.432Z,16.05
2022-09-13T21:16:39.615Z,15.97
2022-09-13T21:19:08.058Z,15.95
2022-09-13T21:21:40.781Z,15.71
2022-09-13T21:24:11.643Z,15.77
2022-09-13T21:26:42.381Z,15.85
2022-09-13T21:29:11.511Z,15.94
2022-09-13T21:31:39.656Z,15.99
2022-09-13T21:34:12.648Z,15.97
2022-09-13T21:36:40.048Z,15.79
2022-09-13T21:39:07.758Z,15.81
2022-09-13T21:41:35.381Z,15.92
2022-09-13T21:44:02.869Z,16.07
2022-09-13T21:46:32.165Z,16.03
2022-09-13T21:49:03.150Z,16.10
2022-09-13T21:51:36.410Z,15.94
2022-09-13T21:54:06.760Z,15.89
2022-09-13T21:56:38.495Z,15.74
2022-09-13T21:59:08.856Z,15.65
2022-09-13T22:01:39.178Z,15.55
2022-09-13T22:04:09.496Z,15.57
2022-09-13T22:06:40.822Z,15.56
2022-09-13T22:09:16.820Z,15.50
2022-09-13T22:11:47.747Z,15.50
2022-09-13T22:14:22.822Z,15.52
2022-09-13T22:16:56.244Z,15.47
2022-09-13T22:19:29.801Z,15.38
2022-09-13T22:22:03.451Z,15.35
2022-09-13T22:24:42.324Z,15.39
2022-09-13T22:27:12.480Z,15.33
2022-09-13T22:29:41.399Z,15.38
2022-09-13T22:32:10.253Z,15.30
2022-09-13T22:34:38.926Z,15.34
2022-09-13T22:37:07.654Z,15.35
2022-09-13T22:39:34.908Z,15.26
2022-09-13T22:42:02.248Z,15.25
2022-09-13T22:44:29.689Z,15.23
2022-09-13T22:47:00.356Z,15.19
2022-09-13T22:49:27.732Z,15.16
2022-09-13T22:51:55.097Z,15.26
2022-09-13T22:54:22.269Z,15.37
2022-09-13T22:56:49.450Z,15.40
2022-09-13T22:59:20.018Z,15.35
2022-09-13T23:01:47.547Z,15.31
2022-09-13T23:04:15.111Z,15.16
2022-09-13T23:06:45.543Z,15.11
2022-09-13T23:09:18.352Z,15.08
2022-09-13T23:11:47.762Z,15.11
2022-09-13T23:14:17.507Z,15.00
2022-09-13T23:16:52.523Z,15.01
2022-09-13T23:19:22.083Z,14.89
2022-09-13T23:21:49.474Z,14.94
2022-09-13T23:24:18.450Z,14.88
2022-09-13T23:26:46.684Z,14.90
2022-09-13T23:29:16.060Z,14.85
2022-09-13T23:31:43.698Z,14.78
2022-09-13T23:34:12.551Z,14.82
2022-09-13T23:36:41.678Z,14.77
2022-09-13T23:39:13.301Z,14.70
2022-09-13T23:41:40.474Z,14.75
2022-09-13T23:44:07.993Z,14.86
2022-09-13T23:46:35.624Z,14.87
2022-09-13T23:49:02.908Z,15.01
2022-09-13T23:51:30.983Z,15.09
2022-09-13T23:53:58.673Z,14.98
2022-09-13T23:56:26.950Z,14.87
2022-09-13T23:59:00.524Z,14.84
